createdAt,value
2017-12-10T00:00:04.642Z,951.18
2017-12-10T00:01:04.645Z,951.14
2017-12-10T00:02:04.644Z,951.16
2017-12-10T00:03:04.645Z,951.12
2017-12-10T00:04:04.647Z,951.11
2017-12-10T00:05:04.653Z,951.10
2017-12-10T00:06:04.647Z,951.12
2017-12-10T00:07:04.651Z,951.17
2017-12-10T00:08:04.652Z,951.11
2017-12-10T00:09:04.653Z,951.14
2017-12-10T00:10:04.652Z,951.11
2017-12-10T00:11:04.656Z,951.10
2017-12-10T00:12:04.662Z,951.11
2017-12-10T00:13:04.659Z,951.13
2017-12-10T00:14:04.660Z,951.09
2017-12-10T00:15:04.661Z,951.07
2017-12-10T00:16:04.663Z,951.07
2017-12-10T00:17:04.676Z,951.04
2017-12-10T00:18:04.665Z,951.07
2017-12-10T00:19:04.666Z,951.05
2017-12-10T00:20:04.688Z,951.07
2017-12-10T00:21:04.670Z,951.03
2017-12-10T00:22:04.670Z,951.00
2017-12-10T00:23:04.679Z,951.00
2017-12-10T00:24:04.674Z,950.98
2017-12-10T00:25:04.673Z,950.97
2017-12-10T00:26:04.675Z,950.96
2017-12-10T00:27:04.677Z,950.98
2017-12-10T00:28:04.679Z,950.94
2017-12-10T00:29:04.679Z,950.90
2017-12-10T00:30:04.682Z,950.91
2017-12-10T00:31:04.682Z,950.91
2017-12-10T00:32:04.686Z,950.89
2017-12-10T00:33:04.684Z,950.87
2017-12-10T00:34:04.687Z,950.86
2017-12-10T00:35:04.688Z,950.85
2017-12-10T00:36:04.709Z,950.83
2017-12-10T00:37:04.690Z,950.83
2017-12-10T00:38:04.691Z,950.82
2017-12-10T00:39:04.693Z,950.80
2017-12-10T00:40:04.698Z,950.78
2017-12-10T00:41:04.693Z,950.77
2017-12-10T00:42:04.696Z,950.76
2017-12-10T00:43:04.698Z,950.74
2017-12-10T00:44:04.697Z,950.67
2017-12-10T00:45:04.701Z,950.65
2017-12-10T00:46:04.704Z,950.62
2017-12-10T00:47:04.701Z,950.59
2017-12-10T00:48:04.705Z,950.58
2017-12-10T00:49:04.704Z,950.55
2017-12-10T00:50:04.746Z,950.55
2017-12-10T00:51:04.715Z,950.48
2017-12-10T00:52:04.710Z,950.47
2017-12-10T00:53:04.717Z,950.39
2017-12-10T00:54:04.712Z,950.41
2017-12-10T00:55:04.722Z,950.41
2017-12-10T00:56:04.714Z,950.41
2017-12-10T00:57:04.716Z,950.41
2017-12-10T00:58:04.731Z,950.34
2017-12-10T00:59:04.720Z,950.32
2017-12-10T01:00:04.721Z,950.28
2017-12-10T01:01:04.722Z,950.21
2017-12-10T01:02:04.721Z,950.18
2017-12-10T01:03:04.723Z,950.20
2017-12-10T01:04:04.725Z,950.15
2017-12-10T01:05:04.726Z,950.11
2017-12-10T01:06:04.727Z,950.10
2017-12-10T01:07:04.729Z,950.05
2017-12-10T01:08:04.731Z,950.06
2017-12-10T01:09:04.732Z,950.04
2017-12-10T01:10:04.734Z,950.06
2017-12-10T01:11:04.735Z,950.06
2017-12-10T01:12:04.735Z,950.02
2017-12-10T01:13:04.737Z,949.97
2017-12-10T01:14:04.737Z,949.97
2017-12-10T01:15:04.739Z,949.98
2017-12-10T01:16:04.740Z,949.94
2017-12-10T01:17:04.742Z,949.94
2017-12-10T01:18:04.742Z,949.93
2017-12-10T01:19:04.744Z,949.90
2017-12-10T01:20:04.746Z,949.86
2017-12-10T01:21:04.748Z,949.86
2017-12-10T01:22:04.748Z,949.84
2017-12-10T01:23:04.749Z,949.84
2017-12-10T01:24:04.753Z,949.83
2017-12-10T01:25:04.752Z,949.84
2017-12-10T01:26:04.752Z,949.83
2017-12-10T01:27:04.754Z,949.83
2017-12-10T01:28:04.756Z,949.82
2017-12-10T01:29:04.757Z,949.76
2017-12-10T01:30:04.758Z,949.79
2017-12-10T01:31:04.759Z,949.79
2017-12-10T01:32:04.761Z,949.73
2017-12-10T01:33:04.762Z,949.76
2017-12-10T01:34:04.763Z,949.77
2017-12-10T01:35:04.768Z,949.75
2017-12-10T01:36:04.766Z,949.70
2017-12-10T01:37:04.768Z,949.69
2017-12-10T01:38:04.768Z,949.66
2017-12-10T01:39:04.770Z,949.69
2017-12-10T01:40:04.771Z,949.67
2017-12-10T01:41:04.773Z,949.69
2017-12-10T01:42:04.774Z,949.60
2017-12-10T01:43:04.775Z,949.60
2017-12-10T01:44:04.776Z,949.58
2017-12-10T01:45:04.778Z,949.60
2017-12-10T01:46:04.779Z,949.60
2017-12-10T01:47:04.782Z,949.59
2017-12-10T01:48:04.785Z,949.54
2017-12-10T01:49:04.782Z,949.51
2017-12-10T01:50:04.823Z,949.53
2017-12-10T01:51:04.784Z,949.53
2017-12-10T01:52:04.786Z,949.56
2017-12-10T01:53:04.788Z,949.49
2017-12-10T01:54:04.788Z,949.47
2017-12-10T01:55:04.790Z,949.46
2017-12-10T01:56:04.791Z,949.45
2017-12-10T01:57:04.792Z,949.44
2017-12-10T01:58:04.793Z,949.40
2017-12-10T01:59:04.794Z,949.35
2017-12-10T02:00:04.802Z,949.37
2017-12-10T02:01:04.797Z,949.33
2017-12-10T02:02:04.797Z,949.32
2017-12-10T02:03:04.799Z,949.28
2017-12-10T02:04:04.801Z,949.24
2017-12-10T02:05:04.802Z,949.25
2017-12-10T02:06:04.803Z,949.18
2017-12-10T02:07:04.805Z,949.17
2017-12-10T02:08:04.806Z,949.12
2017-12-10T02:09:04.808Z,949.08
2017-12-10T02:10:04.808Z,949.10
2017-12-10T02:11:04.809Z,949.05
2017-12-10T02:12:04.811Z,949.00
2017-12-10T02:13:04.812Z,948.96
2017-12-10T02:14:04.811Z,948.94
2017-12-10T02:15:04.848Z,948.94
2017-12-10T02:16:04.816Z,948.93
2017-12-10T02:17:04.818Z,948.89
2017-12-10T02:18:04.818Z,948.87
2017-12-10T02:19:04.819Z,948.89
2017-12-10T02:20:04.821Z,948.85
2017-12-10T02:21:04.871Z,948.83
2017-12-10T02:22:04.823Z,948.81
2017-12-10T02:23:04.825Z,948.76
2017-12-10T02:24:04.826Z,948.75
2017-12-10T02:25:04.837Z,948.78
2017-12-10T02:26:04.829Z,948.72
2017-12-10T02:27:04.829Z,948.69
2017-12-10T02:28:04.831Z,948.71
2017-12-10T02:29:04.832Z,948.65
2017-12-10T02:30:04.833Z,948.63
2017-12-10T02:31:04.836Z,948.58
2017-12-10T02:32:04.836Z,948.62
2017-12-10T02:33:04.839Z,948.53
2017-12-10T02:34:04.838Z,948.53
2017-12-10T02:35:04.841Z,948.51
2017-12-10T02:36:04.863Z,948.46
2017-12-10T02:37:04.842Z,948.42
2017-12-10T02:38:04.843Z,948.36
2017-12-10T02:39:04.844Z,948.32
2017-12-10T02:40:04.845Z,948.27
2017-12-10T02:41:04.847Z,948.25
2017-12-10T02:42:04.847Z,948.24
2017-12-10T02:43:04.850Z,948.20
2017-12-10T02:44:04.850Z,948.23
2017-12-10T02:45:04.857Z,948.15
2017-12-10T02:46:04.852Z,948.15
2017-12-10T02:47:04.853Z,948.12
2017-12-10T02:48:04.855Z,948.11
2017-12-10T02:49:04.856Z,948.08
2017-12-10T02:50:04.857Z,948.05
2017-12-10T02:51:04.858Z,948.01
2017-12-10T02:52:04.860Z,948.00
2017-12-10T02:53:04.861Z,948.00
2017-12-10T02:54:04.861Z,947.97
2017-12-10T02:55:04.864Z,947.95
2017-12-10T02:56:04.865Z,947.90
2017-12-10T02:57:04.863Z,947.89
2017-12-10T02:58:04.866Z,947.88
2017-12-10T02:59:04.868Z,947.86
2017-12-10T03:00:04.869Z,947.85
2017-12-10T03:01:04.870Z,947.83
2017-12-10T03:02:04.870Z,947.81
2017-12-10T03:03:04.873Z,947.76
2017-12-10T03:04:04.874Z,947.72
2017-12-10T03:05:04.876Z,947.63
2017-12-10T03:06:04.880Z,947.62
2017-12-10T03:07:04.878Z,947.56
2017-12-10T03:08:04.878Z,947.52
2017-12-10T03:09:04.881Z,947.48
2017-12-10T03:10:04.881Z,947.40
2017-12-10T03:11:04.902Z,947.47
2017-12-10T03:12:04.884Z,947.38
2017-12-10T03:13:04.885Z,947.32
2017-12-10T03:14:04.885Z,947.28
2017-12-10T03:15:04.887Z,947.24
2017-12-10T03:16:04.941Z,947.18
2017-12-10T03:17:04.889Z,947.18
2017-12-10T03:18:04.890Z,947.16
2017-12-10T03:19:04.891Z,947.12
2017-12-10T03:20:04.892Z,947.15
2017-12-10T03:21:04.894Z,947.14
2017-12-10T03:22:04.895Z,947.10
2017-12-10T03:23:04.896Z,947.10
2017-12-10T03:24:04.902Z,947.07
2017-12-10T03:25:04.922Z,947.02
2017-12-10T03:26:04.901Z,946.96
2017-12-10T03:27:04.902Z,946.99
2017-12-10T03:28:04.902Z,946.99
2017-12-10T03:29:04.903Z,947.02
2017-12-10T03:30:04.929Z,946.99
2017-12-10T03:31:04.906Z,946.98
2017-12-10T03:32:04.906Z,946.93
2017-12-10T03:33:04.908Z,946.89
2017-12-10T03:34:04.908Z,946.89
2017-12-10T03:35:04.911Z,946.90
2017-12-10T03:36:04.945Z,946.93
2017-12-10T03:37:04.913Z,946.96
2017-12-10T03:38:04.913Z,946.96
2017-12-10T03:39:04.915Z,946.93
2017-12-10T03:40:04.935Z,946.86
2017-12-10T03:41:04.919Z,946.84
2017-12-10T03:42:04.918Z,946.78
2017-12-10T03:43:04.919Z,946.73
2017-12-10T03:44:04.924Z,946.74
2017-12-10T03:45:04.933Z,946.70
2017-12-10T03:46:04.923Z,946.68
2017-12-10T03:47:04.924Z,946.68
2017-12-10T03:48:04.936Z,946.66
2017-12-10T03:49:04.927Z,946.66
2017-12-10T03:50:04.927Z,946.60
2017-12-10T03:51:04.929Z,946.54
2017-12-10T03:52:04.930Z,946.53
2017-12-10T03:53:04.933Z,946.52
2017-12-10T03:54:04.932Z,946.55
2017-12-10T03:55:04.933Z,946.51
2017-12-10T03:56:04.942Z,946.46
2017-12-10T03:57:04.939Z,946.46
2017-12-10T03:58:04.949Z,946.43
2017-12-10T03:59:04.939Z,946.42
2017-12-10T04:00:04.940Z,946.41
2017-12-10T04:01:04.941Z,946.37
2017-12-10T04:02:04.941Z,946.42
2017-12-10T04:03:04.944Z,946.31
2017-12-10T04:04:04.942Z,946.32
2017-12-10T04:05:05.026Z,946.30
2017-12-10T04:06:04.955Z,946.26
2017-12-10T04:07:04.976Z,946.26
2017-12-10T04:08:04.949Z,946.16
2017-12-10T04:09:04.948Z,946.12
2017-12-10T04:10:04.962Z,946.10
2017-12-10T04:11:04.954Z,946.10
2017-12-10T04:12:04.953Z,946.10
2017-12-10T04:13:04.955Z,946.04
2017-12-10T04:14:04.955Z,946.02
2017-12-10T04:15:04.957Z,945.96
2017-12-10T04:16:04.958Z,945.91
2017-12-10T04:17:04.959Z,945.89
2017-12-10T04:18:04.959Z,945.85
2017-12-10T04:19:04.961Z,945.80
2017-12-10T04:20:04.966Z,945.72
2017-12-10T04:21:04.964Z,945.68
2017-12-10T04:22:04.965Z,945.63
2017-12-10T04:23:04.966Z,945.68
2017-12-10T04:24:04.967Z,945.67
2017-12-10T04:25:04.990Z,945.69
2017-12-10T04:26:04.969Z,945.69
2017-12-10T04:27:04.969Z,945.68
2017-12-10T04:28:04.970Z,945.63
2017-12-10T04:29:04.973Z,945.63
2017-12-10T04:30:04.974Z,945.64
2017-12-10T04:31:04.976Z,945.59
2017-12-10T04:32:04.976Z,945.58
2017-12-10T04:33:04.977Z,945.49
2017-12-10T04:34:04.978Z,945.49
2017-12-10T04:35:04.978Z,945.46
2017-12-10T04:36:04.985Z,945.45
2017-12-10T04:37:04.983Z,945.42
2017-12-10T04:38:04.983Z,945.37
2017-12-10T04:39:04.984Z,945.33
2017-12-10T04:40:04.986Z,945.27
2017-12-10T04:41:04.987Z,945.26
2017-12-10T04:42:04.987Z,945.23
2017-12-10T04:43:04.989Z,945.22
2017-12-10T04:44:04.991Z,945.17
2017-12-10T04:45:05.015Z,945.18
2017-12-10T04:46:04.993Z,945.17
2017-12-10T04:47:04.994Z,945.14
2017-12-10T04:48:04.995Z,945.12
2017-12-10T04:49:04.997Z,945.07
2017-12-10T04:50:04.996Z,945.03
2017-12-10T04:51:05.035Z,944.97
2017-12-10T04:52:05.000Z,944.96
2017-12-10T04:53:05.001Z,944.92
2017-12-10T04:54:05.002Z,944.91
2017-12-10T04:55:05.003Z,944.91
2017-12-10T04:56:05.005Z,944.88
2017-12-10T04:57:05.032Z,944.87
2017-12-10T04:58:05.007Z,944.78
2017-12-10T04:59:05.009Z,944.75
2017-12-10T05:00:05.010Z,944.77
2017-12-10T05:01:05.013Z,944.70
2017-12-10T05:02:05.012Z,944.65
2017-12-10T05:03:05.015Z,944.59
2017-12-10T05:04:05.014Z,944.54
2017-12-10T05:05:05.015Z,944.55
2017-12-10T05:06:05.063Z,944.50
2017-12-10T05:07:05.018Z,944.48
2017-12-10T05:08:05.019Z,944.47
2017-12-10T05:09:05.021Z,944.43
2017-12-10T05:10:05.021Z,944.41
2017-12-10T05:11:05.040Z,944.36
2017-12-10T05:12:05.024Z,944.34
2017-12-10T05:13:05.025Z,944.31
2017-12-10T05:14:05.026Z,944.27
2017-12-10T05:15:05.028Z,944.30
2017-12-10T05:16:05.028Z,944.30
2017-12-10T05:17:05.029Z,944.26
2017-12-10T05:18:05.031Z,944.30
2017-12-10T05:19:05.032Z,944.33
2017-12-10T05:20:05.034Z,944.34
2017-12-10T05:21:05.035Z,944.30
2017-12-10T05:22:05.036Z,944.27
2017-12-10T05:23:05.037Z,944.16
2017-12-10T05:24:05.039Z,944.12
2017-12-10T05:25:05.040Z,944.01
2017-12-10T05:26:05.041Z,943.99
2017-12-10T05:27:05.042Z,943.96
2017-12-10T05:28:05.045Z,943.92
2017-12-10T05:29:05.047Z,943.92
2017-12-10T05:30:05.060Z,943.84
2017-12-10T05:31:05.049Z,943.84
2017-12-10T05:32:05.049Z,943.83
2017-12-10T05:33:05.050Z,943.81
2017-12-10T05:34:05.051Z,943.83
2017-12-10T05:35:05.053Z,943.82
2017-12-10T05:36:05.054Z,943.77
2017-12-10T05:37:05.055Z,943.70
2017-12-10T05:38:05.056Z,943.63
2017-12-10T05:39:05.057Z,943.54
2017-12-10T05:40:05.059Z,943.54
2017-12-10T05:41:05.060Z,943.66
2017-12-10T05:42:05.061Z,943.64
2017-12-10T05:43:05.062Z,943.63
2017-12-10T05:44:05.062Z,943.45
2017-12-10T05:45:05.066Z,943.48
2017-12-10T05:46:05.066Z,943.49
2017-12-10T05:47:05.067Z,943.40
2017-12-10T05:48:05.068Z,943.29
2017-12-10T05:49:05.070Z,943.25
2017-12-10T05:50:05.119Z,943.19
2017-12-10T05:51:05.084Z,943.04
2017-12-10T05:52:05.074Z,942.86
2017-12-10T05:53:05.075Z,942.68
2017-12-10T05:54:05.076Z,942.58
2017-12-10T05:55:05.078Z,942.65
2017-12-10T05:56:05.078Z,942.87
2017-12-10T05:57:05.081Z,942.81
2017-12-10T05:58:05.081Z,942.84
2017-12-10T05:59:05.082Z,942.86
2017-12-10T06:00:05.084Z,942.93
2017-12-10T06:01:05.085Z,942.92
2017-12-10T06:02:05.086Z,942.83
2017-12-10T06:03:05.088Z,942.61
2017-12-10T06:04:05.096Z,942.51
2017-12-10T06:05:05.089Z,942.55
2017-12-10T06:06:05.142Z,942.59
2017-12-10T06:07:05.093Z,942.61
2017-12-10T06:08:05.094Z,942.62
2017-12-10T06:09:05.095Z,942.57
2017-12-10T06:10:05.098Z,942.47
2017-12-10T06:11:05.097Z,942.38
2017-12-10T06:12:05.102Z,942.39
2017-12-10T06:13:05.102Z,942.35
2017-12-10T06:14:05.101Z,942.31
2017-12-10T06:15:05.102Z,942.22
2017-12-10T06:16:05.103Z,942.21
2017-12-10T06:17:05.107Z,942.18
2017-12-10T06:18:05.107Z,942.11
2017-12-10T06:19:05.114Z,942.08
2017-12-10T06:20:05.118Z,942.05
2017-12-10T06:21:05.115Z,942.04
2017-12-10T06:22:05.110Z,941.96
2017-12-10T06:23:05.111Z,941.91
2017-12-10T06:24:05.115Z,941.87
2017-12-10T06:25:05.120Z,941.84
2017-12-10T06:26:05.120Z,941.83
2017-12-10T06:27:05.120Z,941.79
2017-12-10T06:28:05.120Z,941.79
2017-12-10T06:29:05.122Z,941.71
2017-12-10T06:30:05.125Z,941.67
2017-12-10T06:31:05.125Z,941.59
2017-12-10T06:32:05.125Z,941.65
2017-12-10T06:33:05.131Z,941.66
2017-12-10T06:34:05.129Z,941.65
2017-12-10T06:35:05.129Z,941.63
2017-12-10T06:36:05.130Z,941.66
2017-12-10T06:37:05.131Z,941.66
2017-12-10T06:38:05.132Z,941.61
2017-12-10T06:39:05.135Z,941.53
2017-12-10T06:40:05.135Z,941.47
2017-12-10T06:41:05.138Z,941.39
2017-12-10T06:42:05.139Z,941.36
2017-12-10T06:43:05.139Z,941.27
2017-12-10T06:44:05.139Z,941.24
2017-12-10T06:45:05.162Z,941.20
2017-12-10T06:46:05.144Z,941.15
2017-12-10T06:47:05.144Z,941.15
2017-12-10T06:48:05.146Z,941.21
2017-12-10T06:49:05.148Z,941.15
2017-12-10T06:50:05.148Z,941.19
2017-12-10T06:51:05.208Z,941.18
2017-12-10T06:52:05.152Z,941.15
2017-12-10T06:53:05.153Z,941.12
2017-12-10T06:54:05.153Z,941.08
2017-12-10T06:55:05.165Z,941.03
2017-12-10T06:56:05.157Z,940.99
2017-12-10T06:57:05.159Z,941.01
2017-12-10T06:58:05.163Z,940.97
2017-12-10T06:59:05.160Z,940.95
2017-12-10T07:00:05.162Z,940.99
2017-12-10T07:01:05.164Z,940.95
2017-12-10T07:02:05.164Z,940.87
2017-12-10T07:03:05.166Z,940.81
2017-12-10T07:04:05.170Z,940.76
2017-12-10T07:05:05.174Z,940.76
2017-12-10T07:06:05.183Z,940.73
2017-12-10T07:07:05.177Z,940.68
2017-12-10T07:08:05.178Z,940.66
2017-12-10T07:09:05.180Z,940.63
2017-12-10T07:10:05.181Z,940.63
2017-12-10T07:11:05.178Z,940.62
2017-12-10T07:12:05.179Z,940.63
2017-12-10T07:13:05.180Z,940.63
2017-12-10T07:14:05.181Z,940.61
2017-12-10T07:15:05.182Z,940.56
2017-12-10T07:16:05.183Z,940.52
2017-12-10T07:17:05.185Z,940.43
2017-12-10T07:18:05.186Z,940.36
2017-12-10T07:19:05.188Z,940.32
2017-12-10T07:20:05.189Z,940.32
2017-12-10T07:21:05.189Z,940.29
2017-12-10T07:22:05.192Z,940.23
2017-12-10T07:23:05.193Z,940.25
2017-12-10T07:24:05.193Z,940.23
2017-12-10T07:25:05.196Z,940.23
2017-12-10T07:26:05.196Z,940.18
2017-12-10T07:27:05.198Z,940.15
2017-12-10T07:28:05.199Z,940.10
2017-12-10T07:29:05.201Z,940.07
2017-12-10T07:30:05.202Z,940.08
2017-12-10T07:31:05.203Z,940.03
2017-12-10T07:32:05.204Z,940.00
2017-12-10T07:33:05.207Z,939.91
2017-12-10T07:34:05.208Z,939.84
2017-12-10T07:35:05.211Z,939.76
2017-12-10T07:36:05.208Z,939.67
2017-12-10T07:37:05.212Z,939.58
2017-12-10T07:38:05.211Z,939.56
2017-12-10T07:39:05.213Z,939.53
2017-12-10T07:40:05.214Z,939.54
2017-12-10T07:41:05.240Z,939.52
2017-12-10T07:42:05.223Z,939.52
2017-12-10T07:43:05.221Z,939.49
2017-12-10T07:44:05.220Z,939.45
2017-12-10T07:45:05.229Z,939.40
2017-12-10T07:46:05.223Z,939.33
2017-12-10T07:47:05.287Z,939.32
2017-12-10T07:48:05.226Z,939.31
2017-12-10T07:49:05.228Z,939.28
2017-12-10T07:50:05.228Z,939.26
2017-12-10T07:51:05.245Z,939.23
2017-12-10T07:52:05.231Z,939.22
2017-12-10T07:53:05.233Z,939.18
2017-12-10T07:54:05.233Z,939.14
2017-12-10T07:55:05.235Z,939.05
2017-12-10T07:56:05.282Z,938.99
2017-12-10T07:57:05.238Z,938.95
2017-12-10T07:58:05.239Z,938.88
2017-12-10T07:59:05.240Z,938.81
2017-12-10T08:00:05.243Z,938.82
2017-12-10T08:01:05.244Z,938.81
2017-12-10T08:02:05.281Z,938.78
2017-12-10T08:03:05.246Z,938.76
2017-12-10T08:04:05.270Z,938.76
2017-12-10T08:05:05.274Z,938.68
2017-12-10T08:06:05.250Z,938.62
2017-12-10T08:07:05.254Z,938.53
2017-12-10T08:08:05.253Z,938.43
2017-12-10T08:09:05.255Z,938.44
2017-12-10T08:10:05.254Z,938.37
2017-12-10T08:11:05.302Z,938.38
2017-12-10T08:12:05.259Z,938.33
2017-12-10T08:13:05.258Z,938.34
2017-12-10T08:14:05.260Z,938.33
2017-12-10T08:15:05.263Z,938.31
2017-12-10T08:16:05.264Z,938.28
2017-12-10T08:17:05.272Z,938.24
2017-12-10T08:18:05.267Z,938.24
2017-12-10T08:19:05.268Z,938.14
2017-12-10T08:20:05.267Z,938.07
2017-12-10T08:21:05.269Z,938.02
2017-12-10T08:22:05.272Z,938.03
2017-12-10T08:23:05.275Z,937.99
2017-12-10T08:24:05.275Z,937.92
2017-12-10T08:25:05.282Z,937.92
2017-12-10T08:26:05.284Z,937.85
2017-12-10T08:27:05.283Z,937.79
2017-12-10T08:28:05.292Z,937.74
2017-12-10T08:29:05.287Z,937.73
2017-12-10T08:30:05.290Z,937.67
2017-12-10T08:31:05.286Z,937.65
2017-12-10T08:32:05.286Z,937.61
2017-12-10T08:33:05.290Z,937.53
2017-12-10T08:34:05.290Z,937.56
2017-12-10T08:35:05.291Z,937.57
2017-12-10T08:36:05.292Z,937.57
2017-12-10T08:37:05.294Z,937.51
2017-12-10T08:38:05.295Z,937.58
2017-12-10T08:39:05.296Z,937.44
2017-12-10T08:40:05.300Z,937.37
2017-12-10T08:41:05.305Z,937.32
2017-12-10T08:42:05.300Z,937.20
2017-12-10T08:43:05.302Z,937.13
2017-12-10T08:44:05.303Z,937.20
2017-12-10T08:45:05.351Z,937.20
2017-12-10T08:46:05.312Z,937.21
2017-12-10T08:47:05.308Z,937.23
2017-12-10T08:48:05.316Z,937.11
2017-12-10T08:49:05.311Z,937.12
2017-12-10T08:50:05.311Z,937.19
2017-12-10T08:51:05.313Z,937.14
2017-12-10T08:52:05.315Z,937.20
2017-12-10T08:53:05.318Z,937.27
2017-12-10T08:54:05.317Z,937.19
2017-12-10T08:55:05.319Z,937.15
2017-12-10T08:56:05.322Z,937.18
2017-12-10T08:57:05.327Z,937.17
2017-12-10T08:58:05.324Z,937.11
2017-12-10T08:59:05.325Z,937.06
2017-12-10T09:00:05.327Z,937.06
2017-12-10T09:01:05.329Z,937.10
2017-12-10T09:02:05.337Z,937.05
2017-12-10T09:03:05.331Z,936.90
2017-12-10T09:04:05.341Z,936.83
2017-12-10T09:05:05.334Z,936.82
2017-12-10T09:06:05.334Z,936.74
2017-12-10T09:07:05.336Z,936.72
2017-12-10T09:08:05.339Z,936.66
2017-12-10T09:09:05.347Z,936.58
2017-12-10T09:10:05.341Z,936.47
2017-12-10T09:11:05.342Z,936.37
2017-12-10T09:12:05.350Z,936.35
2017-12-10T09:13:05.351Z,936.34
2017-12-10T09:14:05.355Z,936.20
2017-12-10T09:15:05.353Z,936.19
2017-12-10T09:16:05.355Z,936.20
2017-12-10T09:17:05.365Z,936.13
2017-12-10T09:18:05.353Z,936.12
2017-12-10T09:19:05.358Z,936.04
2017-12-10T09:20:05.356Z,936.01
2017-12-10T09:21:05.407Z,935.96
2017-12-10T09:22:05.359Z,935.94
2017-12-10T09:23:05.362Z,935.88
2017-12-10T09:24:05.362Z,935.83
2017-12-10T09:25:05.364Z,935.83
2017-12-10T09:26:05.370Z,935.79
2017-12-10T09:27:05.367Z,935.79
2017-12-10T09:28:05.368Z,935.81
2017-12-10T09:29:05.370Z,935.75
2017-12-10T09:30:05.371Z,935.72
2017-12-10T09:31:05.372Z,935.69
2017-12-10T09:32:05.374Z,935.65
2017-12-10T09:33:05.376Z,935.65
2017-12-10T09:34:05.377Z,935.64
2017-12-10T09:35:05.378Z,935.64
2017-12-10T09:36:05.381Z,935.65
2017-12-10T09:37:05.385Z,935.74
2017-12-10T09:38:05.382Z,935.71
2017-12-10T09:39:05.384Z,935.72
2017-12-10T09:40:05.385Z,935.69
2017-12-10T09:41:05.398Z,935.65
2017-12-10T09:42:05.388Z,935.60
2017-12-10T09:43:05.390Z,935.57
2017-12-10T09:44:05.393Z,935.56
2017-12-10T09:45:05.395Z,935.50
2017-12-10T09:46:05.395Z,935.44
2017-12-10T09:47:05.403Z,935.44
2017-12-10T09:48:05.399Z,935.44
2017-12-10T09:49:05.402Z,935.43
2017-12-10T09:50:05.402Z,935.42
2017-12-10T09:51:05.402Z,935.39
2017-12-10T09:52:05.403Z,935.41
2017-12-10T09:53:05.405Z,935.39
2017-12-10T09:54:05.413Z,935.41
2017-12-10T09:55:05.408Z,935.33
2017-12-10T09:56:05.409Z,935.28
2017-12-10T09:57:05.412Z,935.29
2017-12-10T09:58:05.415Z,935.26
2017-12-10T09:59:05.414Z,935.27
2017-12-10T10:00:05.416Z,935.20
2017-12-10T10:01:05.418Z,935.23
2017-12-10T10:02:05.419Z,935.16
2017-12-10T10:03:05.421Z,935.11
2017-12-10T10:04:05.423Z,935.06
2017-12-10T10:05:05.424Z,935.06
2017-12-10T10:06:05.425Z,934.97
2017-12-10T10:07:05.427Z,934.97
2017-12-10T10:08:05.429Z,934.91
2017-12-10T10:09:05.436Z,934.86
2017-12-10T10:10:05.431Z,934.85
2017-12-10T10:11:05.433Z,934.85
2017-12-10T10:12:05.434Z,934.77
2017-12-10T10:13:05.436Z,934.72
2017-12-10T10:14:05.436Z,934.64
2017-12-10T10:15:05.437Z,934.68
2017-12-10T10:16:05.440Z,934.61
2017-12-10T10:17:05.442Z,934.62
2017-12-10T10:18:05.446Z,934.55
2017-12-10T10:19:05.453Z,934.49
2017-12-10T10:20:05.456Z,934.51
2017-12-10T10:21:05.541Z,934.50
2017-12-10T10:22:05.456Z,934.40
2017-12-10T10:23:05.454Z,934.38
2017-12-10T10:24:05.456Z,934.33
2017-12-10T10:25:05.484Z,934.30
2017-12-10T10:26:05.455Z,934.29
2017-12-10T10:27:05.459Z,934.21
2017-12-10T10:28:05.459Z,934.14
2017-12-10T10:29:05.462Z,934.06
2017-12-10T10:30:05.461Z,934.01
2017-12-10T10:31:05.463Z,933.99
2017-12-10T10:32:05.463Z,933.95
2017-12-10T10:33:05.469Z,933.82
2017-12-10T10:34:05.468Z,933.80
2017-12-10T10:35:05.470Z,933.73
2017-12-10T10:36:05.522Z,933.65
2017-12-10T10:37:05.471Z,933.58
2017-12-10T10:38:05.473Z,933.53
2017-12-10T10:39:05.475Z,933.56
2017-12-10T10:40:05.478Z,933.55
2017-12-10T10:41:05.478Z,933.55
2017-12-10T10:42:05.481Z,933.41
2017-12-10T10:43:05.482Z,933.46
2017-12-10T10:44:05.484Z,933.40
2017-12-10T10:45:05.485Z,933.37
2017-12-10T10:46:05.485Z,933.40
2017-12-10T10:47:05.490Z,933.35
2017-12-10T10:48:05.490Z,933.28
2017-12-10T10:49:05.491Z,933.25
2017-12-10T10:50:05.492Z,933.21
2017-12-10T10:51:05.505Z,933.25
2017-12-10T10:52:05.496Z,933.25
2017-12-10T10:53:05.498Z,933.11
2017-12-10T10:54:05.499Z,933.06
2017-12-10T10:55:05.501Z,933.03
2017-12-10T10:56:05.572Z,933.00
2017-12-10T10:57:05.503Z,932.99
2017-12-10T10:58:05.504Z,932.93
2017-12-10T10:59:05.506Z,932.92
2017-12-10T11:00:05.507Z,932.89
2017-12-10T11:01:05.510Z,932.91
2017-12-10T11:02:05.510Z,932.81
2017-12-10T11:03:05.512Z,932.79
2017-12-10T11:04:05.514Z,932.74
2017-12-10T11:05:05.515Z,932.77
2017-12-10T11:06:05.518Z,932.73
2017-12-10T11:07:05.519Z,932.60
2017-12-10T11:08:05.521Z,932.56
2017-12-10T11:09:05.522Z,932.57
2017-12-10T11:10:05.525Z,932.47
2017-12-10T11:11:05.574Z,932.40
2017-12-10T11:12:05.534Z,932.30
2017-12-10T11:13:05.528Z,932.23
2017-12-10T11:14:05.529Z,932.22
2017-12-10T11:15:05.543Z,932.28
2017-12-10T11:16:05.534Z,932.12
2017-12-10T11:17:05.534Z,932.18
2017-12-10T11:18:05.536Z,932.08
2017-12-10T11:19:05.539Z,932.01
2017-12-10T11:20:05.540Z,932.01
2017-12-10T11:21:05.539Z,931.92
2017-12-10T11:22:05.541Z,931.93
2017-12-10T11:23:05.549Z,931.86
2017-12-10T11:24:05.544Z,931.85
2017-12-10T11:25:05.572Z,931.80
2017-12-10T11:26:05.547Z,931.83
2017-12-10T11:27:05.550Z,931.76
2017-12-10T11:28:05.550Z,931.79
2017-12-10T11:29:05.553Z,931.70
2017-12-10T11:30:05.555Z,931.68
2017-12-10T11:31:05.555Z,931.61
2017-12-10T11:32:05.556Z,931.51
2017-12-10T11:33:05.560Z,931.47
2017-12-10T11:34:05.560Z,931.36
2017-12-10T11:35:05.560Z,931.27
2017-12-10T11:36:05.561Z,931.24
2017-12-10T11:37:05.565Z,931.25
2017-12-10T11:38:05.566Z,931.23
2017-12-10T11:39:05.567Z,931.18
2017-12-10T11:40:05.569Z,931.13
2017-12-10T11:41:05.570Z,931.12
2017-12-10T11:42:05.572Z,931.09
2017-12-10T11:43:05.574Z,931.04
2017-12-10T11:44:05.576Z,930.98
2017-12-10T11:45:05.588Z,930.96
2017-12-10T11:46:05.580Z,930.93
2017-12-10T11:47:05.579Z,930.84
2017-12-10T11:48:05.582Z,930.87
2017-12-10T11:49:05.585Z,930.90
2017-12-10T11:50:05.669Z,930.76
2017-12-10T11:51:05.586Z,930.73
2017-12-10T11:52:05.588Z,930.72
2017-12-10T11:53:05.589Z,930.64
2017-12-10T11:54:05.590Z,930.64
2017-12-10T11:55:05.613Z,930.62
2017-12-10T11:56:05.595Z,930.61
2017-12-10T11:57:05.596Z,930.58
2017-12-10T11:58:05.597Z,930.49
2017-12-10T11:59:05.598Z,930.53
2017-12-10T12:00:05.600Z,930.52
2017-12-10T12:01:05.616Z,930.51
2017-12-10T12:02:05.603Z,930.56
2017-12-10T12:03:05.605Z,930.55
2017-12-10T12:04:05.607Z,930.54
2017-12-10T12:05:05.608Z,930.48
2017-12-10T12:06:05.609Z,930.42
2017-12-10T12:07:05.611Z,930.44
2017-12-10T12:08:05.615Z,930.35
2017-12-10T12:09:05.614Z,930.37
2017-12-10T12:10:05.624Z,930.26
2017-12-10T12:11:05.617Z,930.26
2017-12-10T12:12:05.623Z,930.29
2017-12-10T12:13:05.626Z,930.31
2017-12-10T12:14:05.622Z,930.25
2017-12-10T12:15:05.624Z,930.23
2017-12-10T12:16:05.626Z,930.30
2017-12-10T12:17:05.627Z,930.26
2017-12-10T12:18:05.634Z,930.31
2017-12-10T12:19:05.630Z,930.30
2017-12-10T12:20:05.632Z,930.31
2017-12-10T12:21:05.635Z,930.33
2017-12-10T12:22:05.643Z,930.26
2017-12-10T12:23:05.636Z,930.33
2017-12-10T12:24:05.639Z,930.34
2017-12-10T12:25:05.640Z,930.37
2017-12-10T12:26:05.639Z,930.38
2017-12-10T12:27:05.643Z,930.45
2017-12-10T12:28:05.644Z,930.42